Time;durP1;ratioP1;P1;durP2;ratioP2;P2;SDS_P1;SDS_P2;PMS_P1;PMS_P2;Temp;Humidity;BMP_temperature;BMP_pressure;BME280_temperature;BME280_humidity;BME280_pressure;Samples;Min_cycle;Max_cycle;Signal;HPM_P1;HPM_P2
2023/04/22 00:02:25;;;;;;;0.33;0.20;;;;;;;12.08;96.02;94995.41;5132647;27;20457;-61
2023/04/22 00:04:56;;;;;;;0.43;0.37;;;;;;;11.92;97.00;94987.91;5132651;27;20529;-60
2023/04/22 00:07:24;;;;;;;0.40;0.30;;;;;;;12.07;96.35;95001.00;5133045;27;20518;-60
2023/04/22 00:09:53;;;;;;;0.60;0.40;;;;;;;12.12;95.07;95008.91;5132620;27;20431;-60
2023/04/22 00:12:22;;;;;;;0.40;0.30;;;;;;;12.28;94.22;94991.69;5131999;27;20438;-60
2023/04/22 00:14:51;;;;;;;1.00;1.00;;;;;;;12.49;92.74;95003.63;5132472;27;20442;-60
2023/04/22 00:17:19;;;;;;;0.40;0.40;;;;;;;12.58;91.51;95012.50;5132400;28;20533;-61
2023/04/22 00:19:47;;;;;;;0.30;0.20;;;;;;;12.79;89.68;94991.72;5132232;28;20892;-60
2023/04/22 00:22:16;;;;;;;0.60;0.60;;;;;;;12.96;87.96;95005.25;5132567;28;20431;-60
2023/04/22 00:24:44;;;;;;;0.60;0.37;;;;;;;12.76;86.52;94949.75;5132219;28;20483;-61
2023/04/22 00:27:12;;;;;;;0.37;0.30;;;;;;;12.91;86.95;94964.66;5132183;28;20486;-61
2023/04/22 00:29:42;;;;;;;0.37;0.27;;;;;;;13.20;85.93;95007.81;5132523;28;20431;-60
2023/04/22 00:32:10;;;;;;;0.40;0.30;;;;;;;13.17;84.45;95008.41;5132463;28;20868;-61
2023/04/22 00:34:39;;;;;;;3.27;0.37;;;;;;;13.29;82.38;95006.84;5132242;28;20507;-60
2023/04/22 00:37:07;;;;;;;0.60;0.40;;;;;;;13.01;84.42;95010.50;5132129;28;20461;-61
2023/04/22 00:39:37;;;;;;;0.40;0.20;;;;;;;12.53;86.34;94969.25;5132349;28;20463;-61
2023/04/22 00:42:07;;;;;;;0.40;0.30;;;;;;;12.77;89.63;95015.91;5131208;28;20427;-61
2023/04/22 00:44:36;;;;;;;0.60;0.60;;;;;;;12.87;90.21;95022.97;5132371;27;20522;-61
2023/04/22 00:47:06;;;;;;;0.40;0.30;;;;;;;12.49;93.22;95018.75;5134831;27;20477;-61
2023/04/22 00:49:35;;;;;;;0.40;0.40;;;;;;;12.59;93.68;95000.81;5135525;27;20439;-61
2023/04/22 00:52:04;;;;;;;0.40;0.30;;;;;;;12.97;93.69;95017.50;5136166;27;20860;-61
2023/04/22 00:54:34;;;;;;;0.73;0.73;;;;;;;12.94;95.42;95022.59;5136306;27;20497;-61
2023/04/22 00:57:03;;;;;;;2.50;1.27;;;;;;;12.26;100.00;95020.41;5135748;27;20474;-61
2023/04/22 00:59:31;;;;;;;0.93;0.60;;;;;;;11.89;100.00;95021.13;5135787;27;20521;-60
2023/04/22 01:02:00;;;;;;;0.50;0.47;;;;;;;11.87;100.00;95007.34;5135713;27;20482;-61
2023/04/22 01:04:30;;;;;;;0.60;0.30;;;;;;;12.36;100.00;95022.13;5128336;27;20439;-61
2023/04/22 01:07:00;;;;;;;0.60;0.60;;;;;;;12.66;100.00;95027.81;5136387;27;20529;-62
2023/04/22 01:09:29;;;;;;;0.40;0.30;;;;;;;12.90;100.00;95032.25;5135970;27;20815;-62
2023/04/22 01:11:57;;;;;;;1.17;0.30;;;;;;;12.68;100.00;95030.97;5136267;27;20439;-62
2023/04/22 01:14:26;;;;;;;0.60;0.60;;;;;;;12.83;100.00;95023.81;5136043;27;20493;-62
2023/04/22 01:16:56;;;;;;;0.50;0.50;;;;;;;12.93;99.29;95021.03;5135863;27;20521;-62
2023/04/22 01:19:28;;;;;;;1.23;0.60;;;;;;;12.91;99.54;95020.50;5135580;27;20507;-61
2023/04/22 01:21:59;;;;;;;0.40;0.30;;;;;;;12.77;100.00;95005.28;5135136;27;20450;-61
2023/04/22 01:24:29;;;;;;;0.40;0.30;;;;;;;12.70;100.00;95015.50;5108603;27;20859;-61
2023/04/22 01:26:57;;;;;;;0.47;0.40;;;;;;;12.83;100.00;95021.16;5135552;27;20435;-61
2023/04/22 01:29:26;;;;;;;0.40;0.30;;;;;;;12.81;100.00;95026.00;5135412;27;20445;-61
2023/04/22 01:31:55;;;;;;;0.40;0.30;;;;;;;12.64;100.00;95029.19;5135637;27;20443;-61
2023/04/22 01:34:23;;;;;;;0.40;0.40;;;;;;;12.56;100.00;95035.13;5135419;27;21005;-61
2023/04/22 01:36:52;;;;;;;0.50;0.50;;;;;;;12.67;100.00;95034.69;5135141;27;20458;-61
2023/04/22 01:39:20;;;;;;;0.57;0.40;;;;;;;12.74;100.00;95034.34;5135638;27;20850;-61
2023/04/22 01:41:50;;;;;;;0.40;0.40;;;;;;;12.83;100.00;95037.13;5135456;27;20445;-61
2023/04/22 01:44:18;;;;;;;0.60;0.50;;;;;;;12.85;100.00;95040.31;5135322;27;20427;-61
2023/04/22 01:46:47;;;;;;;0.97;0.40;;;;;;;12.59;100.00;94992.03;5135233;27;20503;-61
2023/04/22 01:49:15;;;;;;;1.03;0.87;;;;;;;12.93;100.00;95026.34;5135300;27;20442;-61
2023/04/22 01:51:43;;;;;;;0.50;0.50;;;;;;;12.98;100.00;95026.28;5134492;27;20434;-61
2023/04/22 01:54:11;;;;;;;0.30;0.20;;;;;;;12.73;100.00;94993.66;5135091;27;20505;-61
2023/04/22 01:56:42;;;;;;;0.30;0.30;;;;;;;13.05;99.93;95026.69;5134840;27;20848;-61
2023/04/22 01:59:12;;;;;;;0.50;0.50;;;;;;;12.84;100.00;95026.22;5134628;27;20446;-61
2023/04/22 02:01:40;;;;;;;0.50;0.30;;;;;;;12.73;100.00;95033.56;5135087;27;20439;-61
2023/04/22 02:04:08;;;;;;;0.30;0.20;;;;;;;12.77;100.00;95036.44;5120991;27;20489;-61
2023/04/22 02:06:37;;;;;;;0.80;0.80;;;;;;;12.95;100.00;95026.84;5134852;27;20439;-61
2023/04/22 02:09:05;;;;;;;0.40;0.30;;;;;;;13.05;99.81;95029.34;5134640;27;20451;-61
2023/04/22 02:11:34;;;;;;;0.40;0.30;;;;;;;13.09;99.44;95023.16;5134834;27;20431;-61
2023/04/22 02:14:02;;;;;;;0.40;0.30;;;;;;;13.18;98.87;95026.72;5134137;27;21078;-61
2023/04/22 02:16:32;;;;;;;0.40;0.40;;;;;;;13.02;100.00;95033.38;5135054;27;20511;-61
2023/04/22 02:19:01;;;;;;;3.07;0.67;;;;;;;12.52;99.95;95029.59;5133664;27;20443;-61
2023/04/22 02:21:31;;;;;;;0.67;0.50;;;;;;;12.23;100.00;95030.81;5133742;27;20947;-62
2023/04/22 02:23:59;;;;;;;0.50;0.50;;;;;;;12.20;100.00;95036.69;5133336;27;20439;-61
2023/04/22 02:26:27;;;;;;;2.10;0.40;;;;;;;12.40;100.00;95025.78;5134080;27;20508;-62
2023/04/22 02:28:56;;;;;;;0.40;0.30;;;;;;;12.38;100.00;94993.41;5133400;27;20463;-61
2023/04/22 02:31:24;;;;;;;0.30;0.30;;;;;;;12.46;100.00;95025.44;5133942;27;20442;-63
2023/04/22 02:33:54;;;;;;;0.40;0.37;;;;;;;12.69;98.61;95029.09;5132605;27;20487;-61
2023/04/22 02:36:22;;;;;;;0.40;0.30;;;;;;;12.41;97.89;94972.38;5133638;27;20435;-61
2023/04/22 02:38:50;;;;;;;0.40;0.33;;;;;;;12.72;98.15;95028.53;5133862;27;20435;-61
2023/04/22 02:41:19;;;;;;;0.40;0.30;;;;;;;12.86;97.03;95018.72;5133915;27;20462;-62
2023/04/22 02:43:47;;;;;;;0.40;0.30;;;;;;;12.95;96.69;95024.97;5133416;27;20474;-62
2023/04/22 02:46:16;;;;;;;0.50;0.50;;;;;;;12.71;98.34;95027.72;5133831;27;20521;-61
2023/04/22 02:48:44;;;;;;;0.40;0.30;;;;;;;12.84;97.62;95026.22;5126734;27;20798;-61
2023/04/22 02:51:14;;;;;;;0.47;0.47;;;;;;;12.85;96.84;95027.00;5127545;27;20526;-61
2023/04/22 02:53:42;;;;;;;2.60;0.87;;;;;;;12.93;96.31;95026.34;5133992;27;20433;-61
2023/04/22 02:56:10;;;;;;;0.40;0.40;;;;;;;13.05;95.90;95029.34;5133327;27;20562;-61
2023/04/22 02:58:39;;;;;;;0.40;0.40;;;;;;;12.98;96.83;95028.94;5134091;27;20441;-61
2023/04/22 03:01:07;;;;;;;0.40;0.40;;;;;;;12.96;95.76;95023.88;5133514;27;20435;-60
2023/04/22 03:03:36;;;;;;;0.40;0.30;;;;;;;12.97;94.57;95014.84;5133702;27;20431;-61
2023/04/22 03:06:04;;;;;;;0.40;0.30;;;;;;;13.01;93.92;95018.47;5133430;27;20497;-60
2023/04/22 03:08:34;;;;;;;1.00;1.00;;;;;;;13.11;92.54;95018.34;5132579;27;20438;-61
2023/04/22 03:11:03;;;;;;;0.40;0.30;;;;;;;13.13;91.18;95015.41;5133800;27;20813;-60
2023/04/22 03:13:31;;;;;;;0.57;0.57;;;;;;;12.98;91.55;94999.66;5133195;27;20475;-61
2023/04/22 03:15:59;;;;;;;2.30;0.63;;;;;;;13.07;90.97;95004.06;5133436;27;20561;-61
2023/04/22 03:18:28;;;;;;;0.50;0.40;;;;;;;13.12;90.66;95003.16;5133854;27;20812;-61
2023/04/22 03:20:56;;;;;;;0.40;0.30;;;;;;;13.04;89.76;95009.91;5133126;27;20470;-61
2023/04/22 03:23:24;;;;;;;0.60;0.53;;;;;;;12.64;92.26;95010.56;5133000;27;20478;-61
2023/04/22 03:25:54;;;;;;;0.40;0.30;;;;;;;12.53;96.64;95012.59;5132492;27;20557;-61
2023/04/22 03:28:22;;;;;;;0.30;0.20;;;;;;;12.42;98.39;95007.72;5132917;27;20436;-60
2023/04/22 03:30:51;;;;;;;0.97;0.93;;;;;;;12.64;95.90;95010.56;5132588;27;20443;-61
2023/04/22 03:33:19;;;;;;;0.40;0.30;;;;;;;12.65;94.34;95004.94;5132864;27;20504;-64
2023/04/22 03:35:48;;;;;;;0.70;0.60;;;;;;;12.75;93.39;95010.09;5133111;27;20474;-61
2023/04/22 03:38:17;;;;;;;0.30;0.20;;;;;;;12.66;93.86;95019.03;5132918;27;20470;-61
2023/04/22 03:40:45;;;;;;;0.50;0.40;;;;;;;12.69;93.19;95024.56;5119700;27;20439;-62
2023/04/22 03:43:15;;;;;;;6.10;0.33;;;;;;;12.63;92.77;95020.41;5133058;27;20816;-61
2023/04/22 03:45:44;;;;;;;1.60;0.40;;;;;;;12.47;94.21;95027.00;5132914;27;20514;-61
2023/04/22 03:48:12;;;;;;;0.40;0.30;;;;;;;12.18;95.77;95018.38;5132962;27;20443;-61
2023/04/22 03:50:41;;;;;;;0.80;0.30;;;;;;;11.99;100.00;95028.22;5132863;27;20473;-61
2023/04/22 03:53:09;;;;;;;0.50;0.40;;;;;;;11.96;100.00;95031.44;5132161;27;20435;-61
2023/04/22 03:55:37;;;;;;;0.60;0.60;;;;;;;11.98;100.00;95031.94;5132603;27;20962;-61
2023/04/22 03:58:06;;;;;;;1.40;1.30;;;;;;;12.14;100.00;95032.53;5132374;27;20434;-62
2023/04/22 04:00:36;;;;;;;0.60;0.60;;;;;;;12.22;100.00;95037.97;5132768;27;20477;-61
2023/04/22 04:03:04;;;;;;;0.70;0.30;;;;;;;12.16;100.00;95031.19;5132722;27;20731;-61
2023/04/22 04:05:33;;;;;;;0.83;0.83;;;;;;;11.85;100.00;95045.88;5132682;27;20778;-61
2023/04/22 04:08:01;;;;;;;0.50;0.50;;;;;;;11.25;100.00;95050.75;5132428;27;20443;-61
2023/04/22 04:10:29;;;;;;;0.60;0.60;;;;;;;11.31;100.00;95051.47;5132696;27;20471;-61
2023/04/22 04:12:58;;;;;;;0.53;0.47;;;;;;;11.43;100.00;95054.56;5132254;27;20439;-61
2023/04/22 04:15:26;;;;;;;0.40;0.20;;;;;;;11.62;100.00;95054.59;5132609;27;20874;-60
2023/04/22 04:17:56;;;;;;;0.87;0.87;;;;;;;11.89;100.00;95049.56;5132443;27;20435;-60
2023/04/22 04:20:24;;;;;;;0.60;0.60;;;;;;;11.98;100.00;95061.94;5132117;27;20965;-60
2023/04/22 04:22:52;;;;;;;0.60;0.50;;;;;;;11.81;100.00;95071.44;5132329;28;20435;-61
2023/04/22 04:25:21;;;;;;;0.40;0.30;;;;;;;11.53;100.00;95072.22;5131743;28;21033;-61
2023/04/22 04:27:50;;;;;;;0.40;0.30;;;;;;;11.53;100.00;95069.56;5132519;27;20427;-60
2023/04/22 04:30:20;;;;;;;0.40;0.30;;;;;;;11.53;100.00;95049.13;5132177;27;20457;-58
2023/04/22 04:32:48;;;;;;;0.40;0.30;;;;;;;11.66;100.00;95075.03;5132218;28;20517;-60
2023/04/22 04:35:19;;;;;;;0.40;0.30;;;;;;;11.53;100.00;95077.53;5131989;28;20477;-60
2023/04/22 04:37:47;;;;;;;0.50;0.50;;;;;;;11.90;100.00;95075.03;5132017;28;20470;-60
2023/04/22 04:40:15;;;;;;;0.40;0.40;;;;;;;12.17;100.00;95075.25;5132492;27;20437;-59
2023/04/22 04:42:43;;;;;;;0.70;0.70;;;;;;;12.23;100.00;95078.63;5132278;28;20441;-59
2023/04/22 04:45:12;;;;;;;0.50;0.50;;;;;;;12.35;100.00;95071.03;5132207;28;20958;-60
2023/04/22 04:47:40;;;;;;;3.27;0.40;;;;;;;12.53;100.00;95080.91;5132036;27;20439;-59
2023/04/22 04:50:09;;;;;;;0.70;0.63;;;;;;;12.78;100.00;95083.19;5132262;28;20438;-59
2023/04/22 04:52:39;;;;;;;5.40;1.13;;;;;;;12.83;100.00;95080.47;5132306;27;20438;-60
2023/04/22 04:55:07;;;;;;;0.40;0.30;;;;;;;12.79;100.00;95068.03;5131839;27;20434;-60
2023/04/22 04:57:36;;;;;;;0.50;0.50;;;;;;;12.94;100.00;95078.44;5132073;28;20500;-59
2023/04/22 05:00:07;;;;;;;0.60;0.50;;;;;;;13.07;100.00;95072.44;5106015;28;20525;-59
2023/04/22 05:02:35;;;;;;;1.43;1.33;;;;;;;13.37;98.59;95077.25;5132240;27;20426;-59
2023/04/22 05:05:04;;;;;;;2.10;0.60;;;;;;;13.36;95.61;95065.81;5131452;28;20838;-58
2023/04/22 05:07:32;;;;;;;0.40;0.30;;;;;;;13.21;96.58;95039.47;5132122;28;20443;-59
2023/04/22 05:10:03;;;;;;;2.83;1.00;;;;;;;13.14;94.23;95012.44;5132418;28;20521;-59
2023/04/22 05:12:31;;;;;;;4.27;0.83;;;;;;;13.54;94.03;95076.69;5131925;28;20434;-57
2023/04/22 05:15:00;;;;;;;1.00;1.00;;;;;;;13.15;96.04;95079.75;5131944;28;20466;-59
2023/04/22 05:17:29;;;;;;;0.87;0.60;;;;;;;13.85;100.00;95075.88;5131290;28;20474;-57
2023/04/22 05:19:57;;;;;;;0.50;0.40;;;;;;;14.44;100.00;95063.53;5131882;27;20438;-56
2023/04/22 05:22:26;;;;;;;1.07;0.30;;;;;;;14.46;100.00;95029.34;5131341;28;20458;-57
2023/04/22 05:24:54;;;;;;;0.63;0.63;;;;;;;14.85;100.00;95066.88;5131539;28;20474;-57
2023/04/22 05:27:24;;;;;;;0.60;0.50;;;;;;;15.18;91.13;95060.22;5131487;27;20831;-57
2023/04/22 05:29:52;;;;;;;3.30;0.80;;;;;;;15.43;99.10;95063.38;5131563;27;20526;-57
2023/04/22 05:32:21;;;;;;;0.50;0.50;;;;;;;15.55;98.68;95031.56;5132797;27;20473;-58
2023/04/22 05:34:49;;;;;;;0.80;0.60;;;;;;;15.83;87.38;95055.13;5135550;27;20464;-57
2023/04/22 05:37:18;;;;;;;0.50;0.50;;;;;;;15.72;85.47;95050.34;5135420;27;20481;-58
2023/04/22 05:39:46;;;;;;;0.60;0.60;;;;;;;15.97;84.15;95055.03;5135492;27;20961;-58
2023/04/22 05:42:14;;;;;;;1.17;1.17;;;;;;;15.96;87.25;95047.31;5108830;27;20438;-59
2023/04/22 05:44:44;;;;;;;1.67;0.60;;;;;;;15.88;80.38;95033.63;5134133;27;20526;-59
2023/04/22 05:47:13;;;;;;;1.73;1.63;;;;;;;15.84;77.30;95050.56;5135018;27;20438;-59
2023/04/22 05:49:41;;;;;;;0.70;0.63;;;;;;;16.09;80.43;95043.75;5135418;27;20442;-58
2023/04/22 05:52:10;;;;;;;0.40;0.40;;;;;;;16.54;75.58;95047.81;5134817;27;20435;-58
2023/04/22 05:54:38;;;;;;;0.90;0.83;;;;;;;16.40;75.28;95055.94;5134719;27;20438;-58
2023/04/22 05:57:07;;;;;;;0.63;0.53;;;;;;;16.38;76.31;95060.81;5134159;27;20482;-58
2023/04/22 05:59:35;;;;;;;1.20;1.10;;;;;;;15.94;76.92;95031.56;5134425;27;20439;-58
2023/04/22 06:02:05;;;;;;;1.37;0.77;;;;;;;16.12;75.54;95033.22;5135285;27;20464;-57
2023/04/22 06:04:33;;;;;;;0.97;0.97;;;;;;;16.50;73.95;95050.28;5133739;27;20439;-57
2023/04/22 06:07:05;;;;;;;0.80;0.80;;;;;;;16.94;74.37;95051.16;5134608;27;20435;-57
2023/04/22 06:09:33;;;;;;;1.27;0.83;;;;;;;17.03;72.70;95050.03;5134218;27;20486;-57
2023/04/22 06:12:02;;;;;;;0.47;0.37;;;;;;;17.13;70.19;95051.59;5134711;27;20930;-63
2023/04/22 06:14:30;;;;;;;2.43;0.63;;;;;;;16.83;69.98;95039.16;5134410;27;20430;-62
2023/04/22 06:16:58;;;;;;;0.70;0.70;;;;;;;17.37;69.91;95057.25;5134324;27;20561;-63
2023/04/22 06:19:28;;;;;;;0.80;0.80;;;;;;;16.51;70.46;95064.47;5134511;27;20462;-62
2023/04/22 06:21:56;;;;;;;1.37;1.33;;;;;;;16.24;70.81;95048.66;5134586;27;20518;-62
2023/04/22 06:24:25;;;;;;;0.60;0.50;;;;;;;16.52;71.27;95058.03;5134154;27;20471;-62
2023/04/22 06:26:53;;;;;;;0.80;0.60;;;;;;;16.94;71.69;95059.97;5134065;27;20526;-58
2023/04/22 06:29:21;;;;;;;0.93;0.73;;;;;;;16.89;67.99;95062.81;5134263;27;20484;-64
2023/04/22 06:31:50;;;;;;;0.90;0.90;;;;;;;17.13;67.94;95057.75;5134204;27;20491;-63
2023/04/22 06:34:18;;;;;;;6.13;2.67;;;;;;;17.33;67.21;95055.53;5134638;27;20427;-62
2023/04/22 06:36:48;;;;;;;0.93;0.93;;;;;;;17.22;66.14;95057.75;5133549;27;20561;-61
2023/04/22 06:39:16;;;;;;;0.77;0.77;;;;;;;17.53;65.63;95057.59;5134325;27;20895;-61
2023/04/22 06:41:45;;;;;;;0.40;0.40;;;;;;;17.94;63.21;95059.66;5134259;27;20431;-61
2023/04/22 06:44:13;;;;;;;1.27;1.17;;;;;;;17.55;62.33;95058.84;5133144;27;20435;-61
2023/04/22 06:46:41;;;;;;;4.57;1.20;;;;;;;17.32;63.89;95053.94;5133595;27;20439;-60
2023/04/22 06:49:09;;;;;;;0.50;0.40;;;;;;;17.33;65.76;95058.97;5133922;27;20500;-60
2023/04/22 06:51:38;;;;;;;2.83;1.07;;;;;;;17.92;63.29;95051.13;5133772;27;20435;-60
2023/04/22 06:54:08;;;;;;;0.70;0.70;;;;;;;18.07;63.13;95058.66;5133930;27;20439;-59
2023/04/22 06:56:36;;;;;;;0.70;0.70;;;;;;;18.17;62.59;95047.56;5133432;27;20477;-60
2023/04/22 06:59:06;;;;;;;1.90;1.20;;;;;;;18.28;62.73;95043.41;5133874;27;20529;-60
2023/04/22 07:01:34;;;;;;;0.73;0.60;;;;;;;18.84;60.99;95050.19;5133921;27;20455;-59
2023/04/22 07:04:03;;;;;;;0.60;0.60;;;;;;;19.34;59.95;95037.44;5133598;27;20511;-60
2023/04/22 07:06:31;;;;;;;0.60;0.60;;;;;;;19.48;59.19;95040.63;5132106;27;20431;-58
2023/04/22 07:09:00;;;;;;;0.50;0.50;;;;;;;18.76;59.23;95041.09;5127959;27;20431;-58
2023/04/22 07:11:30;;;;;;;0.50;0.40;;;;;;;19.44;59.45;95041.66;5106073;27;20518;-60
2023/04/22 07:13:58;;;;;;;0.40;0.40;;;;;;;19.89;57.34;95041.63;5133133;27;20845;-61
2023/04/22 07:16:27;;;;;;;0.70;0.70;;;;;;;18.23;59.26;95055.13;5133303;27;20435;-60
2023/04/22 07:18:56;;;;;;;0.70;0.60;;;;;;;18.85;60.41;95036.44;5133349;27;20442;-59
2023/04/22 07:21:25;;;;;;;0.73;0.50;;;;;;;18.89;61.41;95048.09;5133091;27;20443;-59
2023/04/22 07:23:53;;;;;;;0.50;0.50;;;;;;;19.67;59.68;95042.84;5133232;27;20511;-60
2023/04/22 07:26:21;;;;;;;0.53;0.50;;;;;;;20.06;59.09;95049.53;5133551;27;20423;-60
2023/04/22 07:28:51;;;;;;;0.50;0.30;;;;;;;19.36;62.64;95045.16;5133067;27;20473;-58
2023/04/22 07:31:19;;;;;;;0.50;0.50;;;;;;;20.02;61.74;95038.63;5133166;27;20875;-59
2023/04/22 07:33:47;;;;;;;0.40;0.30;;;;;;;19.71;61.14;95040.28;5132942;27;20521;-59
2023/04/22 07:36:16;;;;;;;0.53;0.50;;;;;;;19.83;61.66;95046.47;5133445;27;20466;-59
2023/04/22 07:38:44;;;;;;;0.40;0.40;;;;;;;19.14;61.88;95050.91;5132603;27;20859;-58
2023/04/22 07:41:12;;;;;;;0.83;0.83;;;;;;;18.58;64.50;95057.63;5132755;27;20871;-58
2023/04/22 07:43:41;;;;;;;0.53;0.40;;;;;;;19.28;62.03;95014.56;5132900;27;20966;-58
2023/04/22 07:46:10;;;;;;;0.40;0.30;;;;;;;19.53;62.92;95051.19;5133098;27;20430;-58
2023/04/22 07:48:39;;;;;;;0.40;0.30;;;;;;;20.35;57.84;95051.22;5132580;27;20472;-59
2023/04/22 07:51:07;;;;;;;0.80;0.67;;;;;;;20.46;57.50;95050.44;5132476;27;20526;-55
2023/04/22 07:53:36;;;;;;;0.50;0.50;;;;;;;20.36;57.65;95055.50;5133113;27;20462;-55
2023/04/22 07:56:04;;;;;;;0.50;0.40;;;;;;;20.43;58.19;95044.94;5132741;27;20442;-55
2023/04/22 07:58:33;;;;;;;0.40;0.40;;;;;;;20.77;54.65;95042.53;5106632;27;20959;-55
2023/04/22 08:01:01;;;;;;;0.40;0.40;;;;;;;20.75;52.40;95044.00;5132395;27;20478;-54
2023/04/22 08:03:31;;;;;;;0.50;0.50;;;;;;;20.26;53.75;95041.34;5132795;27;20439;-55
2023/04/22 08:06:00;;;;;;;0.60;0.60;;;;;;;20.06;54.04;95039.50;5132380;27;20526;-56
2023/04/22 08:08:28;;;;;;;0.40;0.37;;;;;;;20.53;53.45;95029.13;5132464;27;20525;-56
2023/04/22 08:10:56;;;;;;;0.60;0.50;;;;;;;19.70;53.14;95039.47;5132407;27;20943;-56
2023/04/22 08:13:25;;;;;;;0.60;0.50;;;;;;;20.02;55.04;95029.78;5132946;27;20503;-56
2023/04/22 08:15:53;;;;;;;1.23;0.30;;;;;;;20.71;52.28;95029.66;5132246;27;20441;-56
2023/04/22 08:18:21;;;;;;;0.60;0.40;;;;;;;20.27;52.48;95037.56;5132797;27;20482;-56
2023/04/22 08:20:51;;;;;;;0.70;0.70;;;;;;;19.75;51.77;94988.19;5130542;27;20433;-59
2023/04/22 08:23:20;;;;;;;0.47;0.43;;;;;;;20.52;52.98;95032.13;5132255;28;20539;-59
2023/04/22 08:25:48;;;;;;;0.70;0.50;;;;;;;20.40;53.10;95024.06;5132033;28;20472;-59
2023/04/22 08:28:17;;;;;;;0.87;0.87;;;;;;;21.17;53.18;95028.31;5132255;28;20456;-59
2023/04/22 08:30:45;;;;;;;0.70;0.60;;;;;;;21.41;49.79;95023.63;5132329;27;20441;-59
2023/04/22 08:33:13;;;;;;;0.40;0.40;;;;;;;21.47;51.45;95022.25;5132031;28;20438;-59
2023/04/22 08:35:42;;;;;;;0.40;0.30;;;;;;;22.31;50.02;94963.44;5132079;28;20438;-59
2023/04/22 08:38:11;;;;;;;0.53;0.53;;;;;;;22.75;48.78;95028.88;5131918;28;20489;-58
2023/04/22 08:40:41;;;;;;;0.60;0.60;;;;;;;22.39;48.30;94897.63;5132212;28;20518;-58
2023/04/22 08:43:10;;;;;;;0.50;0.40;;;;;;;23.04;47.50;95019.47;5132304;27;20437;-59
2023/04/22 08:45:39;;;;;;;0.53;0.43;;;;;;;24.36;45.69;95000.63;5132355;28;20447;-58
2023/04/22 08:48:10;;;;;;;1.20;1.10;;;;;;;22.79;46.52;94997.31;5131668;28;20525;-60
2023/04/22 08:50:39;;;;;;;1.93;0.40;;;;;;;22.99;44.92;95001.59;5132104;28;20490;-59
2023/04/22 08:53:07;;;;;;;0.73;0.73;;;;;;;22.79;44.29;94991.13;5131904;28;20809;-59
2023/04/22 08:55:39;;;;;;;1.23;0.70;;;;;;;22.95;43.87;94989.91;5132398;27;20441;-60
2023/04/22 08:58:08;;;;;;;0.40;0.30;;;;;;;24.13;43.91;94983.66;5131880;28;20998;-59
2023/04/22 09:00:36;;;;;;;3.03;0.93;;;;;;;23.55;44.23;94983.03;5132174;28;20458;-60
2023/04/22 09:03:06;;;;;;;2.80;0.80;;;;;;;23.24;45.03;94985.88;5131638;28;20530;-61
2023/04/22 09:05:37;;;;;;;0.60;0.60;;;;;;;23.62;43.34;94991.25;5131780;28;20988;-62
2023/04/22 09:08:06;;;;;;;0.40;0.30;;;;;;;24.07;41.02;94949.88;5134592;27;20802;-59
2023/04/22 09:10:38;;;;;;;0.40;0.40;;;;;;;23.64;34.07;94950.31;5136028;27;20495;-60
2023/04/22 09:13:07;;;;;;;0.50;0.50;;;;;;;23.41;34.05;94969.22;5109083;27;20445;-59
2023/04/22 09:15:35;;;;;;;4.07;0.60;;;;;;;23.35;36.98;94971.41;5136272;27;20503;-60
2023/04/22 09:18:04;;;;;;;0.40;0.30;;;;;;;22.94;34.61;94982.19;5136131;27;20477;-61
2023/04/22 09:23:18;;;;;;;1.33;0.43;;;;;;;22.36;31.08;94971.28;5135678;27;20953;-62
2023/04/22 09:25:48;;;;;;;0.40;0.40;;;;;;;22.76;32.14;94968.31;5134487;27;20506;-62
2023/04/22 09:28:19;;;;;;;0.80;0.57;;;;;;;22.77;31.59;94932.03;5134838;27;20821;-61
2023/04/22 09:30:47;;;;;;;1.37;1.27;;;;;;;23.49;31.11;94957.41;5135774;27;20558;-59
2023/04/22 09:33:16;;;;;;;0.40;0.30;;;;;;;23.50;32.06;94952.78;5135790;27;20435;-59
2023/04/22 09:35:44;;;;;;;0.40;0.40;;;;;;;23.50;31.79;94925.72;5109023;27;20439;-60
2023/04/22 09:38:13;;;;;;;0.40;0.30;;;;;;;23.26;30.29;94945.72;5135174;27;20463;-59
2023/04/22 09:40:43;;;;;;;0.30;0.20;;;;;;;23.24;31.42;94948.03;5135341;27;20522;-59
2023/04/22 09:43:17;;;;;;;0.37;0.33;;;;;;;23.85;30.58;94923.59;5135116;27;20527;-59
2023/04/22 09:45:46;;;;;;;0.63;0.33;;;;;;;24.37;32.39;94928.28;5135321;27;20514;-59
2023/04/22 09:48:16;;;;;;;0.50;0.40;;;;;;;24.28;30.53;94901.47;5134806;27;20943;-58
2023/04/22 09:50:46;;;;;;;0.50;0.40;;;;;;;24.66;30.91;94911.28;5135134;27;20447;-58
2023/04/22 09:53:17;;;;;;;0.50;0.40;;;;;;;24.58;28.87;94913.13;5135058;27;20799;-58
2023/04/22 09:55:48;;;;;;;0.50;0.40;;;;;;;23.90;29.94;94918.69;5135291;27;20445;-60
2023/04/22 09:58:19;;;;;;;0.60;0.60;;;;;;;22.60;31.02;94918.91;5134348;27;20822;-61
2023/04/22 10:00:50;;;;;;;0.50;0.50;;;;;;;22.78;31.21;94895.78;5134549;27;20953;-60
2023/04/22 10:03:19;;;;;;;0.40;0.40;;;;;;;21.58;32.06;94862.63;5135176;27;20453;-59
2023/04/22 10:05:48;;;;;;;0.50;0.30;;;;;;;22.27;32.05;94911.25;5133155;27;20512;-60
2023/04/22 10:08:17;;;;;;;0.40;0.30;;;;;;;21.85;32.59;94924.59;5108444;27;20521;-60
2023/04/22 10:10:46;;;;;;;0.73;0.73;;;;;;;20.87;33.19;94930.84;5134160;27;20526;-59
2023/04/22 10:13:14;;;;;;;0.40;0.30;;;;;;;20.71;33.18;94925.41;5134705;27;20538;-56
2023/04/22 10:15:49;;;;;;;0.53;0.53;;;;;;;20.49;32.79;94935.91;5133878;27;21105;-56
2023/04/22 10:18:21;;;;;;;0.83;0.83;;;;;;;21.05;33.57;94934.03;5134337;27;20484;-56
2023/04/22 10:20:51;;;;;;;0.50;0.50;;;;;;;21.36;32.79;94926.00;5134572;27;20468;-56
2023/04/22 10:23:20;;;;;;;0.50;0.40;;;;;;;20.75;32.55;94930.88;5134180;27;20474;-55
2023/04/22 10:25:50;;;;;;;0.47;0.47;;;;;;;20.34;33.35;94929.31;5133649;27;20519;-56
2023/04/22 10:28:22;;;;;;;0.60;0.40;;;;;;;20.09;36.70;94915.09;5134355;27;20435;-56
2023/04/22 10:30:52;;;;;;;0.40;0.20;;;;;;;20.60;33.74;94916.25;5134014;27;20530;-60
2023/04/22 10:33:39;;;;;;;0.40;0.30;;;;;;;20.52;32.48;94921.75;5129478;27;20446;-60
2023/04/22 10:36:10;;;;;;;0.40;0.20;;;;;;;20.56;33.44;94918.06;5133508;27;20453;-60
2023/04/22 10:38:39;;;;;;;0.40;0.30;;;;;;;19.93;36.18;94927.69;5133112;27;20475;-59
2023/04/22 10:41:15;;;;;;;0.50;0.50;;;;;;;19.29;36.55;94926.69;5131323;27;20446;-60
2023/04/22 10:43:44;;;;;;;0.40;0.30;;;;;;;19.13;36.26;94926.53;5133255;27;20499;-60
2023/04/22 10:46:51;;;;;;;0.60;0.40;;;;;;;19.72;35.65;94929.69;5133864;27;20435;-60
2023/04/22 10:49:21;;;;;;;0.40;0.30;;;;;;;19.75;34.45;94930.91;5108041;27;20443;-60
2023/04/22 10:51:51;;;;;;;0.40;0.30;;;;;;;19.40;34.18;94891.03;5132112;27;21175;-60
2023/04/22 10:54:56;;;;;;;0.93;0.90;;;;;;;19.93;34.01;94943.81;5133368;27;20955;-60
2023/04/22 10:57:36;;;;;;;0.40;0.33;;;;;;;19.30;34.79;94939.78;5109239;27;20431;-60
2023/04/22 11:00:39;;;;;;;1.47;0.60;;;;;;;19.48;34.53;94946.56;5133600;27;20474;-60
2023/04/22 11:03:26;;;;;;;0.40;0.30;;;;;;;20.20;35.32;94956.56;5133908;27;20522;-60
2023/04/22 11:06:17;;;;;;;0.40;0.30;;;;;;;20.63;35.94;94957.84;5133239;27;20438;-60
2023/04/22 11:08:46;;;;;;;0.70;0.70;;;;;;;20.24;37.83;94962.06;5133972;27;20525;-62
2023/04/22 11:11:17;;;;;;;0.40;0.30;;;;;;;19.44;38.94;94975.25;5133099;27;20470;-61
2023/04/22 11:13:50;;;;;;;0.90;0.57;;;;;;;18.49;41.54;94974.50;5134008;27;20549;-62
2023/04/22 11:16:22;;;;;;;0.40;0.30;;;;;;;19.01;42.61;94975.66;5133498;27;20461;-62
2023/04/22 11:18:50;;;;;;;0.40;0.37;;;;;;;19.24;42.16;94983.31;5133400;27;20535;-61
2023/04/22 11:21:21;;;;;;;0.97;0.60;;;;;;;19.73;41.53;94973.50;5133227;27;20517;-59
2023/04/22 11:23:52;;;;;;;1.10;0.50;;;;;;;21.39;41.69;94980.03;5132537;27;20931;-63
2023/04/22 11:26:33;;;;;;;0.40;0.40;;;;;;;22.40;41.49;94976.72;5133352;27;20442;-64
2023/04/22 11:29:02;;;;;;;0.50;0.40;;;;;;;22.24;38.38;94992.97;5132286;27;20492;-67
2023/04/22 11:31:31;;;;;;;0.63;0.50;;;;;;;21.46;38.79;94987.50;5133001;27;20513;-66
2023/04/22 11:33:59;;;;;;;0.40;0.30;;;;;;;21.51;37.26;94992.66;5132632;27;20438;-65
2023/04/22 11:36:29;;;;;;;0.50;0.40;;;;;;;20.48;39.29;94988.19;5132959;27;20439;-65
2023/04/22 11:38:59;;;;;;;1.03;0.30;;;;;;;21.30;38.19;94992.88;5132807;27;20522;-66
2023/04/22 11:41:28;;;;;;;0.63;0.60;;;;;;;21.35;38.21;94995.31;5132429;27;20496;-65
2023/04/22 11:43:57;;;;;;;3.67;0.90;;;;;;;20.65;38.21;94996.78;5132961;27;20434;-64
2023/04/22 11:46:30;;;;;;;0.47;0.47;;;;;;;21.09;39.82;94986.13;5132502;27;20467;-63